sensor_id;sensor_type;location;lat;lon;timestamp;P1;durP1;ratioP1;P2;durP2;ratioP2
72771;SDS011;60894;42.544;1.516;2023-06-22T00:01:16;5.85;;;1.70;;
72771;SDS011;60894;42.544;1.516;2023-06-22T00:03:43;6.97;;;1.50;;
72771;SDS011;60894;42.544;1.516;2023-06-22T00:06:10;5.75;;;1.42;;
72771;SDS011;60894;42.544;1.516;2023-06-22T00:08:37;6.50;;;1.70;;
72771;SDS011;60894;42.544;1.516;2023-06-22T00:11:05;5.05;;;1.55;;
72771;SDS011;60894;42.544;1.516;2023-06-22T00:13:32;4.95;;;1.60;;
72771;SDS011;60894;42.544;1.516;2023-06-22T00:15:59;5.33;;;1.50;;
72771;SDS011;60894;42.544;1.516;2023-06-22T00:18:26;5.30;;;1.30;;
72771;SDS011;60894;42.544;1.516;2023-06-22T00:20:54;6.45;;;1.40;;
72771;SDS011;60894;42.544;1.516;2023-06-22T00:23:23;7.55;;;1.80;;
72771;SDS011;60894;42.544;1.516;2023-06-22T00:25:51;5.35;;;1.60;;
72771;SDS011;60894;42.544;1.516;2023-06-22T00:28:19;7.63;;;1.80;;
72771;SDS011;60894;42.544;1.516;2023-06-22T00:30:46;4.85;;;1.50;;
72771;SDS011;60894;42.544;1.516;2023-06-22T00:33:14;5.88;;;1.70;;
72771;SDS011;60894;42.544;1.516;2023-06-22T00:35:41;7.25;;;1.77;;
72771;SDS011;60894;42.544;1.516;2023-06-22T00:38:08;5.35;;;1.42;;
72771;SDS011;60894;42.544;1.516;2023-06-22T00:40:35;4.97;;;1.20;;
72771;SDS011;60894;42.544;1.516;2023-06-22T00:43:02;6.65;;;1.67;;
72771;SDS011;60894;42.544;1.516;2023-06-22T00:45:31;5.60;;;1.33;;
72771;SDS011;60894;42.544;1.516;2023-06-22T00:47:58;5.05;;;1.58;;
72771;SDS011;60894;42.544;1.516;2023-06-22T00:50:26;7.45;;;1.95;;
72771;SDS011;60894;42.544;1.516;2023-06-22T00:52:59;8.57;;;1.70;;
72771;SDS011;60894;42.544;1.516;2023-06-22T00:55:27;5.90;;;1.58;;
72771;SDS011;60894;42.544;1.516;2023-06-22T00:57:54;5.25;;;1.48;;
72771;SDS011;60894;42.544;1.516;2023-06-22T01:00:22;7.88;;;1.80;;
72771;SDS011;60894;42.544;1.516;2023-06-22T01:02:51;6.10;;;1.60;;
72771;SDS011;60894;42.544;1.516;2023-06-22T01:05:19;7.13;;;1.77;;
72771;SDS011;60894;42.544;1.516;2023-06-22T01:07:51;6.10;;;1.80;;
72771;SDS011;60894;42.544;1.516;2023-06-22T01:10:28;8.93;;;1.88;;
72771;SDS011;60894;42.544;1.516;2023-06-22T01:13:01;5.55;;;1.65;;
72771;SDS011;60894;42.544;1.516;2023-06-22T01:15:31;7.15;;;1.70;;
72771;SDS011;60894;42.544;1.516;2023-06-22T01:18:02;5.13;;;1.47;;
72771;SDS011;60894;42.544;1.516;2023-06-22T01:20:30;4.88;;;1.60;;
72771;SDS011;60894;42.544;1.516;2023-06-22T01:23:11;6.50;;;1.52;;
72771;SDS011;60894;42.544;1.516;2023-06-22T01:26:05;5.38;;;1.67;;
72771;SDS011;60894;42.544;1.516;2023-06-22T01:28:45;6.47;;;1.98;;
72771;SDS011;60894;42.544;1.516;2023-06-22T01:31:13;5.80;;;1.63;;
72771;SDS011;60894;42.544;1.516;2023-06-22T01:33:43;5.45;;;1.80;;
72771;SDS011;60894;42.544;1.516;2023-06-22T01:36:13;4.53;;;1.40;;
72771;SDS011;60894;42.544;1.516;2023-06-22T01:38:40;6.15;;;1.70;;
72771;SDS011;60894;42.544;1.516;2023-06-22T01:41:09;7.22;;;1.38;;
72771;SDS011;60894;42.544;1.516;2023-06-22T01:43:37;6.07;;;1.60;;
72771;SDS011;60894;42.544;1.516;2023-06-22T01:46:06;4.88;;;1.77;;
72771;SDS011;60894;42.544;1.516;2023-06-22T01:48:34;7.10;;;1.80;;
72771;SDS011;60894;42.544;1.516;2023-06-22T01:51:01;4.88;;;1.58;;
72771;SDS011;60894;42.544;1.516;2023-06-22T01:53:29;8.88;;;1.80;;
72771;SDS011;60894;42.544;1.516;2023-06-22T01:55:56;6.20;;;1.67;;
72771;SDS011;60894;42.544;1.516;2023-06-22T01:58:24;7.97;;;1.80;;
72771;SDS011;60894;42.544;1.516;2023-06-22T02:00:55;6.38;;;1.60;;
72771;SDS011;60894;42.544;1.516;2023-06-22T02:03:28;6.28;;;2.05;;
72771;SDS011;60894;42.544;1.516;2023-06-22T02:06:04;5.95;;;1.95;;
72771;SDS011;60894;42.544;1.516;2023-06-22T02:08:38;5.83;;;1.70;;
72771;SDS011;60894;42.544;1.516;2023-06-22T02:11:08;10.60;;;1.80;;
72771;SDS011;60894;42.544;1.516;2023-06-22T02:13:36;4.85;;;1.50;;
72771;SDS011;60894;42.544;1.516;2023-06-22T02:16:07;5.40;;;1.60;;
72771;SDS011;60894;42.544;1.516;2023-06-22T02:18:36;4.95;;;1.60;;
72771;SDS011;60894;42.544;1.516;2023-06-22T02:21:05;7.20;;;1.93;;
72771;SDS011;60894;42.544;1.516;2023-06-22T02:23:32;5.03;;;1.60;;
72771;SDS011;60894;42.544;1.516;2023-06-22T02:26:00;9.88;;;1.98;;
72771;SDS011;60894;42.544;1.516;2023-06-22T02:28:28;5.75;;;1.50;;
72771;SDS011;60894;42.544;1.516;2023-06-22T02:30:55;4.28;;;1.55;;
72771;SDS011;60894;42.544;1.516;2023-06-22T02:33:22;5.87;;;1.60;;
72771;SDS011;60894;42.544;1.516;2023-06-22T02:35:50;6.53;;;2.13;;
72771;SDS011;60894;42.544;1.516;2023-06-22T02:38:18;4.85;;;1.40;;
72771;SDS011;60894;42.544;1.516;2023-06-22T02:40:45;5.28;;;1.60;;
72771;SDS011;60894;42.544;1.516;2023-06-22T02:43:12;4.95;;;1.48;;
72771;SDS011;60894;42.544;1.516;2023-06-22T02:45:39;7.50;;;1.60;;
72771;SDS011;60894;42.544;1.516;2023-06-22T02:48:06;5.60;;;1.60;;
72771;SDS011;60894;42.544;1.516;2023-06-22T02:50:33;6.63;;;1.75;;
72771;SDS011;60894;42.544;1.516;2023-06-22T02:53:01;4.70;;;1.65;;
72771;SDS011;60894;42.544;1.516;2023-06-22T02:55:28;4.10;;;1.30;;
72771;SDS011;60894;42.544;1.516;2023-06-22T02:57:56;4.70;;;1.63;;
72771;SDS011;60894;42.544;1.516;2023-06-22T03:00:24;5.68;;;1.75;;
72771;SDS011;60894;42.544;1.516;2023-06-22T03:02:55;6.93;;;1.80;;
72771;SDS011;60894;42.544;1.516;2023-06-22T03:05:22;10.15;;;2.08;;
72771;SDS011;60894;42.544;1.516;2023-06-22T03:07:49;6.00;;;1.73;;
72771;SDS011;60894;42.544;1.516;2023-06-22T03:10:18;6.20;;;2.00;;
72771;SDS011;60894;42.544;1.516;2023-06-22T03:12:45;6.40;;;1.95;;
72771;SDS011;60894;42.544;1.516;2023-06-22T03:15:12;6.93;;;2.00;;
72771;SDS011;60894;42.544;1.516;2023-06-22T03:17:39;4.43;;;1.75;;
72771;SDS011;60894;42.544;1.516;2023-06-22T03:20:07;7.05;;;2.10;;
72771;SDS011;60894;42.544;1.516;2023-06-22T03:22:36;5.00;;;2.17;;
72771;SDS011;60894;42.544;1.516;2023-06-22T03:25:03;5.32;;;1.58;;
72771;SDS011;60894;42.544;1.516;2023-06-22T03:27:36;6.45;;;1.77;;
72771;SDS011;60894;42.544;1.516;2023-06-22T03:30:03;10.98;;;1.95;;
72771;SDS011;60894;42.544;1.516;2023-06-22T03:32:31;7.10;;;1.95;;
72771;SDS011;60894;42.544;1.516;2023-06-22T03:34:58;8.27;;;2.17;;
72771;SDS011;60894;42.544;1.516;2023-06-22T03:37:25;7.07;;;2.45;;
72771;SDS011;60894;42.544;1.516;2023-06-22T03:39:52;7.90;;;2.10;;
72771;SDS011;60894;42.544;1.516;2023-06-22T03:42:20;6.18;;;1.90;;
72771;SDS011;60894;42.544;1.516;2023-06-22T03:44:48;8.20;;;2.05;;
72771;SDS011;60894;42.544;1.516;2023-06-22T03:47:15;6.33;;;1.67;;
72771;SDS011;60894;42.544;1.516;2023-06-22T03:49:42;4.97;;;1.70;;
72771;SDS011;60894;42.544;1.516;2023-06-22T03:52:09;6.53;;;2.08;;
72771;SDS011;60894;42.544;1.516;2023-06-22T03:54:37;6.72;;;1.90;;
72771;SDS011;60894;42.544;1.516;2023-06-22T03:57:04;6.57;;;2.00;;
72771;SDS011;60894;42.544;1.516;2023-06-22T03:59:31;6.13;;;1.90;;
72771;SDS011;60894;42.544;1.516;2023-06-22T04:02:00;6.20;;;2.10;;
72771;SDS011;60894;42.544;1.516;2023-06-22T04:04:27;6.47;;;1.90;;
72771;SDS011;60894;42.544;1.516;2023-06-22T04:06:54;7.57;;;1.83;;
72771;SDS011;60894;42.544;1.516;2023-06-22T04:09:21;6.82;;;1.90;;
72771;SDS011;60894;42.544;1.516;2023-06-22T04:11:48;5.07;;;1.60;;
72771;SDS011;60894;42.544;1.516;2023-06-22T04:14:14;5.90;;;1.70;;
72771;SDS011;60894;42.544;1.516;2023-06-22T04:16:41;5.72;;;1.70;;
72771;SDS011;60894;42.544;1.516;2023-06-22T04:19:10;5.05;;;1.60;;
72771;SDS011;60894;42.544;1.516;2023-06-22T04:21:41;7.05;;;1.80;;
72771;SDS011;60894;42.544;1.516;2023-06-22T04:24:08;6.90;;;1.80;;
72771;SDS011;60894;42.544;1.516;2023-06-22T04:26:35;6.97;;;2.00;;
72771;SDS011;60894;42.544;1.516;2023-06-22T04:29:03;9.40;;;2.15;;
72771;SDS011;60894;42.544;1.516;2023-06-22T04:31:31;5.38;;;1.70;;
72771;SDS011;60894;42.544;1.516;2023-06-22T04:34:02;6.68;;;2.30;;
72771;SDS011;60894;42.544;1.516;2023-06-22T04:36:33;5.40;;;1.80;;
72771;SDS011;60894;42.544;1.516;2023-06-22T04:39:03;8.52;;;1.70;;
72771;SDS011;60894;42.544;1.516;2023-06-22T04:41:32;7.80;;;1.80;;
72771;SDS011;60894;42.544;1.516;2023-06-22T04:44:07;5.50;;;1.60;;
72771;SDS011;60894;42.544;1.516;2023-06-22T04:46:35;6.85;;;1.80;;
72771;SDS011;60894;42.544;1.516;2023-06-22T04:49:04;6.50;;;2.33;;
72771;SDS011;60894;42.544;1.516;2023-06-22T04:51:36;5.43;;;1.63;;
72771;SDS011;60894;42.544;1.516;2023-06-22T04:54:04;9.02;;;2.05;;
72771;SDS011;60894;42.544;1.516;2023-06-22T04:56:31;7.95;;;1.92;;
72771;SDS011;60894;42.544;1.516;2023-06-22T04:58:58;5.22;;;1.70;;
72771;SDS011;60894;42.544;1.516;2023-06-22T05:01:25;7.63;;;1.80;;
72771;SDS011;60894;42.544;1.516;2023-06-22T05:03:52;8.05;;;2.35;;
72771;SDS011;60894;42.544;1.516;2023-06-22T05:06:20;6.38;;;2.13;;
72771;SDS011;60894;42.544;1.516;2023-06-22T05:08:51;5.60;;;1.92;;
72771;SDS011;60894;42.544;1.516;2023-06-22T05:11:19;5.45;;;1.90;;
72771;SDS011;60894;42.544;1.516;2023-06-22T05:13:45;5.37;;;1.70;;
72771;SDS011;60894;42.544;1.516;2023-06-22T05:16:12;10.07;;;2.33;;
72771;SDS011;60894;42.544;1.516;2023-06-22T05:18:39;6.45;;;2.20;;
72771;SDS011;60894;42.544;1.516;2023-06-22T05:21:07;5.80;;;1.88;;
72771;SDS011;60894;42.544;1.516;2023-06-22T05:23:33;8.90;;;2.05;;
72771;SDS011;60894;42.544;1.516;2023-06-22T05:26:02;4.97;;;1.83;;
72771;SDS011;60894;42.544;1.516;2023-06-22T05:28:29;8.13;;;2.85;;
72771;SDS011;60894;42.544;1.516;2023-06-22T05:30:55;7.25;;;2.10;;
72771;SDS011;60894;42.544;1.516;2023-06-22T05:33:22;8.35;;;2.72;;
72771;SDS011;60894;42.544;1.516;2023-06-22T05:35:49;18.90;;;5.43;;
72771;SDS011;60894;42.544;1.516;2023-06-22T05:38:16;16.23;;;7.70;;
72771;SDS011;60894;42.544;1.516;2023-06-22T05:40:43;13.88;;;6.85;;
72771;SDS011;60894;42.544;1.516;2023-06-22T05:43:12;9.52;;;3.40;;
72771;SDS011;60894;42.544;1.516;2023-06-22T05:45:39;8.02;;;2.38;;
72771;SDS011;60894;42.544;1.516;2023-06-22T05:48:06;7.03;;;2.35;;
72771;SDS011;60894;42.544;1.516;2023-06-22T05:50:32;7.20;;;2.23;;
72771;SDS011;60894;42.544;1.516;2023-06-22T05:52:59;6.70;;;1.98;;
72771;SDS011;60894;42.544;1.516;2023-06-22T05:55:26;6.97;;;2.60;;
72771;SDS011;60894;42.544;1.516;2023-06-22T05:57:53;6.88;;;2.00;;
72771;SDS011;60894;42.544;1.516;2023-06-22T06:00:22;8.45;;;2.10;;
72771;SDS011;60894;42.544;1.516;2023-06-22T06:02:49;5.97;;;2.10;;
72771;SDS011;60894;42.544;1.516;2023-06-22T06:05:16;7.18;;;2.55;;
72771;SDS011;60894;42.544;1.516;2023-06-22T06:07:44;9.30;;;2.63;;
72771;SDS011;60894;42.544;1.516;2023-06-22T06:10:14;10.10;;;3.65;;
72771;SDS011;60894;42.544;1.516;2023-06-22T06:12:40;10.18;;;4.90;;
72771;SDS011;60894;42.544;1.516;2023-06-22T06:15:07;10.80;;;4.47;;
72771;SDS011;60894;42.544;1.516;2023-06-22T06:17:37;9.07;;;4.50;;
72771;SDS011;60894;42.544;1.516;2023-06-22T06:20:11;9.70;;;3.90;;
72771;SDS011;60894;42.544;1.516;2023-06-22T06:22:38;9.70;;;4.35;;
72771;SDS011;60894;42.544;1.516;2023-06-22T06:25:06;12.48;;;7.05;;
72771;SDS011;60894;42.544;1.516;2023-06-22T06:27:33;15.67;;;9.30;;
72771;SDS011;60894;42.544;1.516;2023-06-22T06:30:00;17.83;;;6.55;;
72771;SDS011;60894;42.544;1.516;2023-06-22T06:32:28;7.90;;;3.25;;
72771;SDS011;60894;42.544;1.516;2023-06-22T06:34:56;7.78;;;3.10;;
72771;SDS011;60894;42.544;1.516;2023-06-22T06:37:23;8.07;;;2.70;;
72771;SDS011;60894;42.544;1.516;2023-06-22T06:39:50;9.47;;;3.30;;
72771;SDS011;60894;42.544;1.516;2023-06-22T06:42:17;11.70;;;3.90;;
72771;SDS011;60894;42.544;1.516;2023-06-22T06:44:45;9.38;;;3.75;;
72771;SDS011;60894;42.544;1.516;2023-06-22T06:47:12;7.90;;;3.53;;
72771;SDS011;60894;42.544;1.516;2023-06-22T06:49:38;11.80;;;3.90;;
72771;SDS011;60894;42.544;1.516;2023-06-22T06:52:07;8.63;;;2.83;;
72771;SDS011;60894;42.544;1.516;2023-06-22T06:54:34;9.45;;;3.42;;
72771;SDS011;60894;42.544;1.516;2023-06-22T06:57:01;11.68;;;2.80;;
72771;SDS011;60894;42.544;1.516;2023-06-22T06:59:28;15.05;;;8.10;;
72771;SDS011;60894;42.544;1.516;2023-06-22T07:01:56;8.82;;;3.20;;
72771;SDS011;60894;42.544;1.516;2023-06-22T07:04:23;8.53;;;2.80;;
72771;SDS011;60894;42.544;1.516;2023-06-22T07:06:50;8.90;;;2.75;;
72771;SDS011;60894;42.544;1.516;2023-06-22T07:09:18;9.40;;;3.42;;
72771;SDS011;60894;42.544;1.516;2023-06-22T07:11:45;8.27;;;2.88;;
72771;SDS011;60894;42.544;1.516;2023-06-22T07:14:12;8.02;;;3.00;;
72771;SDS011;60894;42.544;1.516;2023-06-22T07:16:39;8.43;;;2.93;;
72771;SDS011;60894;42.544;1.516;2023-06-22T07:19:07;10.20;;;3.25;;
72771;SDS011;60894;42.544;1.516;2023-06-22T07:21:33;7.57;;;2.55;;
72771;SDS011;60894;42.544;1.516;2023-06-22T07:24:00;11.13;;;2.80;;
72771;SDS011;60894;42.544;1.516;2023-06-22T07:26:29;10.18;;;3.33;;
72771;SDS011;60894;42.544;1.516;2023-06-22T07:28:56;11.03;;;3.43;;
72771;SDS011;60894;42.544;1.516;2023-06-22T07:31:23;9.93;;;2.72;;
72771;SDS011;60894;42.544;1.516;2023-06-22T07:33:50;8.32;;;3.03;;
72771;SDS011;60894;42.544;1.516;2023-06-22T07:36:17;9.45;;;3.30;;
72771;SDS011;60894;42.544;1.516;2023-06-22T07:38:44;8.20;;;2.97;;
72771;SDS011;60894;42.544;1.516;2023-06-22T07:41:11;8.87;;;3.30;;
72771;SDS011;60894;42.544;1.516;2023-06-22T07:43:40;11.02;;;3.30;;
72771;SDS011;60894;42.544;1.516;2023-06-22T07:46:07;9.95;;;5.22;;
72771;SDS011;60894;42.544;1.516;2023-06-22T07:48:36;10.77;;;3.50;;
72771;SDS011;60894;42.544;1.516;2023-06-22T07:51:04;11.15;;;3.10;;
72771;SDS011;60894;42.544;1.516;2023-06-22T07:53:32;10.57;;;3.27;;
72771;SDS011;60894;42.544;1.516;2023-06-22T07:55:59;9.70;;;2.88;;
72771;SDS011;60894;42.544;1.516;2023-06-22T07:58:26;8.18;;;2.70;;
72771;SDS011;60894;42.544;1.516;2023-06-22T08:00:54;7.40;;;2.60;;
72771;SDS011;60894;42.544;1.516;2023-06-22T08:03:21;7.57;;;2.90;;
72771;SDS011;60894;42.544;1.516;2023-06-22T08:05:48;7.87;;;2.70;;
72771;SDS011;60894;42.544;1.516;2023-06-22T08:08:15;7.70;;;3.20;;
72771;SDS011;60894;42.544;1.516;2023-06-22T08:10:42;11.85;;;3.22;;
72771;SDS011;60894;42.544;1.516;2023-06-22T08:13:09;10.27;;;4.15;;
72771;SDS011;60894;42.544;1.516;2023-06-22T08:15:37;7.38;;;2.60;;
72771;SDS011;60894;42.544;1.516;2023-06-22T08:18:05;9.20;;;2.90;;
72771;SDS011;60894;42.544;1.516;2023-06-22T08:20:32;13.65;;;2.97;;
72771;SDS011;60894;42.544;1.516;2023-06-22T08:22:59;9.50;;;3.00;;
72771;SDS011;60894;42.544;1.516;2023-06-22T08:25:30;9.68;;;3.10;;
72771;SDS011;60894;42.544;1.516;2023-06-22T08:27:58;14.88;;;2.95;;
72771;SDS011;60894;42.544;1.516;2023-06-22T08:30:25;12.13;;;2.70;;
72771;SDS011;60894;42.544;1.516;2023-06-22T08:32:52;12.60;;;3.10;;
72771;SDS011;60894;42.544;1.516;2023-06-22T08:35:21;10.77;;;3.47;;
72771;SDS011;60894;42.544;1.516;2023-06-22T08:37:48;9.63;;;3.13;;
72771;SDS011;60894;42.544;1.516;2023-06-22T08:40:17;6.70;;;2.58;;
72771;SDS011;60894;42.544;1.516;2023-06-22T08:42:45;13.50;;;2.97;;
72771;SDS011;60894;42.544;1.516;2023-06-22T08:45:12;6.40;;;2.30;;
72771;SDS011;60894;42.544;1.516;2023-06-22T08:47:40;7.05;;;2.50;;
72771;SDS011;60894;42.544;1.516;2023-06-22T08:50:08;6.95;;;2.30;;
72771;SDS011;60894;42.544;1.516;2023-06-22T08:52:37;10.93;;;3.40;;
72771;SDS011;60894;42.544;1.516;2023-06-22T08:55:06;8.57;;;2.60;;
72771;SDS011;60894;42.544;1.516;2023-06-22T08:57:34;8.10;;;2.30;;
72771;SDS011;60894;42.544;1.516;2023-06-22T09:00:03;7.28;;;2.60;;
72771;SDS011;60894;42.544;1.516;2023-06-22T09:02:33;7.18;;;2.42;;
72771;SDS011;60894;42.544;1.516;2023-06-22T09:05:02;8.80;;;2.65;;
72771;SDS011;60894;42.544;1.516;2023-06-22T09:07:30;6.37;;;2.20;;
72771;SDS011;60894;42.544;1.516;2023-06-22T09:09:58;8.40;;;2.40;;
72771;SDS011;60894;42.544;1.516;2023-06-22T09:12:25;6.05;;;2.15;;
72771;SDS011;60894;42.544;1.516;2023-06-22T09:14:52;6.50;;;2.10;;
72771;SDS011;60894;42.544;1.516;2023-06-22T09:17:19;7.07;;;2.28;;
72771;SDS011;60894;42.544;1.516;2023-06-22T09:19:46;6.73;;;2.13;;
72771;SDS011;60894;42.544;1.516;2023-06-22T09:22:13;7.10;;;2.25;;
72771;SDS011;60894;42.544;1.516;2023-06-22T09:24:40;7.10;;;2.20;;
72771;SDS011;60894;42.544;1.516;2023-06-22T09:27:09;9.90;;;3.08;;
72771;SDS011;60894;42.544;1.516;2023-06-22T09:29:36;7.20;;;2.03;;
72771;SDS011;60894;42.544;1.516;2023-06-22T09:32:03;7.17;;;2.13;;
72771;SDS011;60894;42.544;1.516;2023-06-22T09:34:30;7.15;;;2.15;;
72771;SDS011;60894;42.544;1.516;2023-06-22T09:36:57;7.47;;;2.28;;
72771;SDS011;60894;42.544;1.516;2023-06-22T09:39:25;9.25;;;2.83;;
72771;SDS011;60894;42.544;1.516;2023-06-22T09:41:52;7.63;;;2.58;;
72771;SDS011;60894;42.544;1.516;2023-06-22T09:44:20;7.00;;;2.10;;
72771;SDS011;60894;42.544;1.516;2023-06-22T09:46:47;6.60;;;1.85;;
72771;SDS011;60894;42.544;1.516;2023-06-22T09:49:14;5.25;;;1.77;;
72771;SDS011;60894;42.544;1.516;2023-06-22T09:51:41;5.32;;;1.77;;
72771;SDS011;60894;42.544;1.516;2023-06-22T09:54:08;8.10;;;2.97;;
72771;SDS011;60894;42.544;1.516;2023-06-22T09:56:35;5.47;;;2.00;;
72771;SDS011;60894;42.544;1.516;2023-06-22T09:59:02;4.85;;;1.60;;
72771;SDS011;60894;42.544;1.516;2023-06-22T10:01:31;7.68;;;2.25;;
72771;SDS011;60894;42.544;1.516;2023-06-22T10:03:58;7.95;;;1.77;;
72771;SDS011;60894;42.544;1.516;2023-06-22T10:06:25;5.97;;;2.08;;
72771;SDS011;60894;42.544;1.516;2023-06-22T10:08:51;4.70;;;1.77;;
72771;SDS011;60894;42.544;1.516;2023-06-22T10:11:18;6.07;;;2.33;;
72771;SDS011;60894;42.544;1.516;2023-06-22T10:13:45;7.10;;;2.05;;
72771;SDS011;60894;42.544;1.516;2023-06-22T10:16:12;9.13;;;2.17;;
72771;SDS011;60894;42.544;1.516;2023-06-22T10:18:40;6.00;;;1.85;;
72771;SDS011;60894;42.544;1.516;2023-06-22T10:21:07;5.37;;;1.83;;
72771;SDS011;60894;42.544;1.516;2023-06-22T10:23:34;5.82;;;1.98;;
72771;SDS011;60894;42.544;1.516;2023-06-22T10:26:01;7.75;;;2.95;;
72771;SDS011;60894;42.544;1.516;2023-06-22T10:28:28;7.05;;;2.72;;
72771;SDS011;60894;42.544;1.516;2023-06-22T10:30:58;6.78;;;2.20;;
72771;SDS011;60894;42.544;1.516;2023-06-22T10:33:24;7.73;;;2.03;;
72771;SDS011;60894;42.544;1.516;2023-06-22T10:35:53;5.65;;;2.03;;
72771;SDS011;60894;42.544;1.516;2023-06-22T10:38:20;7.85;;;2.08;;
72771;SDS011;60894;42.544;1.516;2023-06-22T10:40:47;7.13;;;2.00;;
72771;SDS011;60894;42.544;1.516;2023-06-22T10:43:14;6.60;;;2.03;;
72771;SDS011;60894;42.544;1.516;2023-06-22T10:45:42;6.90;;;2.00;;
72771;SDS011;60894;42.544;1.516;2023-06-22T10:48:10;7.30;;;2.08;;
72771;SDS011;60894;42.544;1.516;2023-06-22T10:50:37;5.85;;;2.55;;
72771;SDS011;60894;42.544;1.516;2023-06-22T10:53:05;5.88;;;1.95;;
72771;SDS011;60894;42.544;1.516;2023-06-22T10:55:32;9.35;;;2.50;;
72771;SDS011;60894;42.544;1.516;2023-06-22T10:57:59;6.20;;;2.00;;
72771;SDS011;60894;42.544;1.516;2023-06-22T11:00:26;8.50;;;2.17;;
72771;SDS011;60894;42.544;1.516;2023-06-22T11:02:53;5.25;;;1.77;;
72771;SDS011;60894;42.544;1.516;2023-06-22T11:05:20;4.65;;;1.70;;
72771;SDS011;60894;42.544;1.516;2023-06-22T11:07:47;5.75;;;2.05;;
72771;SDS011;60894;42.544;1.516;2023-06-22T11:10:16;7.50;;;2.10;;
72771;SDS011;60894;42.544;1.516;2023-06-22T11:12:43;6.13;;;2.30;;
72771;SDS011;60894;42.544;1.516;2023-06-22T11:15:10;8.95;;;2.40;;
72771;SDS011;60894;42.544;1.516;2023-06-22T11:17:37;7.15;;;2.00;;
72771;SDS011;60894;42.544;1.516;2023-06-22T11:20:04;10.07;;;2.70;;
72771;SDS011;60894;42.544;1.516;2023-06-22T11:22:35;4.17;;;1.60;;
72771;SDS011;60894;42.544;1.516;2023-06-22T11:25:04;5.35;;;1.48;;
72771;SDS011;60894;42.544;1.516;2023-06-22T11:27:33;5.25;;;1.60;;
72771;SDS011;60894;42.544;1.516;2023-06-22T11:30:00;4.88;;;1.52;;
72771;SDS011;60894;42.544;1.516;2023-06-22T11:32:27;6.05;;;1.60;;
72771;SDS011;60894;42.544;1.516;2023-06-22T11:34:55;5.87;;;1.60;;
72771;SDS011;60894;42.544;1.516;2023-06-22T11:37:21;4.00;;;1.40;;
72771;SDS011;60894;42.544;1.516;2023-06-22T11:39:48;4.90;;;1.52;;
72771;SDS011;60894;42.544;1.516;2023-06-22T11:42:15;5.72;;;1.58;;
72771;SDS011;60894;42.544;1.516;2023-06-22T11:44:44;5.50;;;1.80;;
72771;SDS011;60894;42.544;1.516;2023-06-22T11:47:11;4.93;;;1.70;;
72771;SDS011;60894;42.544;1.516;2023-06-22T11:49:37;6.72;;;2.42;;
72771;SDS011;60894;42.544;1.516;2023-06-22T11:52:05;4.65;;;1.83;;
72771;SDS011;60894;42.544;1.516;2023-06-22T11:54:32;5.43;;;1.80;;
72771;SDS011;60894;42.544;1.516;2023-06-22T11:56:59;6.18;;;1.80;;
72771;SDS011;60894;42.544;1.516;2023-06-22T11:59:26;5.43;;;1.53;;
72771;SDS011;60894;42.544;1.516;2023-06-22T12:01:55;3.45;;;1.35;;
72771;SDS011;60894;42.544;1.516;2023-06-22T12:04:23;4.32;;;1.45;;
72771;SDS011;60894;42.544;1.516;2023-06-22T12:06:50;2.85;;;1.20;;
72771;SDS011;60894;42.544;1.516;2023-06-22T12:09:17;3.60;;;1.33;;
72771;SDS011;60894;42.544;1.516;2023-06-22T12:11:44;4.63;;;1.13;;
72771;SDS011;60894;42.544;1.516;2023-06-22T12:14:10;3.22;;;1.00;;
72771;SDS011;60894;42.544;1.516;2023-06-22T12:16:38;2.10;;;1.00;;
72771;SDS011;60894;42.544;1.516;2023-06-22T12:19:06;3.80;;;1.05;;
72771;SDS011;60894;42.544;1.516;2023-06-22T12:21:33;4.40;;;1.10;;
72771;SDS011;60894;42.544;1.516;2023-06-22T12:24:00;5.30;;;1.53;;
72771;SDS011;60894;42.544;1.516;2023-06-22T12:26:26;3.08;;;1.10;;
72771;SDS011;60894;42.544;1.516;2023-06-22T12:28:53;2.67;;;1.13;;
72771;SDS011;60894;42.544;1.516;2023-06-22T12:31:20;4.72;;;1.17;;
72771;SDS011;60894;42.544;1.516;2023-06-22T12:33:47;3.50;;;1.25;;
72771;SDS011;60894;42.544;1.516;2023-06-22T12:36:16;2.87;;;1.07;;
72771;SDS011;60894;42.544;1.516;2023-06-22T12:38:43;2.92;;;1.10;;
72771;SDS011;60894;42.544;1.516;2023-06-22T12:41:10;3.65;;;1.17;;
72771;SDS011;60894;42.544;1.516;2023-06-22T12:43:36;7.65;;;3.00;;
72771;SDS011;60894;42.544;1.516;2023-06-22T12:46:03;2.58;;;1.20;;
72771;SDS011;60894;42.544;1.516;2023-06-22T12:48:30;2.90;;;1.20;;
72771;SDS011;60894;42.544;1.516;2023-06-22T12:50:57;3.55;;;1.20;;
72771;SDS011;60894;42.544;1.516;2023-06-22T12:53:25;3.05;;;1.42;;
72771;SDS011;60894;42.544;1.516;2023-06-22T12:55:52;4.88;;;1.90;;
72771;SDS011;60894;42.544;1.516;2023-06-22T12:58:19;2.13;;;1.00;;
72771;SDS011;60894;42.544;1.516;2023-06-22T13:00:46;3.33;;;0.90;;
72771;SDS011;60894;42.544;1.516;2023-06-22T13:03:13;2.33;;;0.90;;
72771;SDS011;60894;42.544;1.516;2023-06-22T13:05:40;2.20;;;0.90;;
72771;SDS011;60894;42.544;1.516;2023-06-22T13:08:07;3.05;;;1.00;;
72771;SDS011;60894;42.544;1.516;2023-06-22T13:10:37;3.00;;;1.20;;
72771;SDS011;60894;42.544;1.516;2023-06-22T13:13:04;2.80;;;1.10;;
72771;SDS011;60894;42.544;1.516;2023-06-22T13:15:31;2.17;;;0.98;;
72771;SDS011;60894;42.544;1.516;2023-06-22T13:17:58;4.47;;;1.58;;
72771;SDS011;60894;42.544;1.516;2023-06-22T13:20:25;2.58;;;1.08;;
72771;SDS011;60894;42.544;1.516;2023-06-22T13:22:53;3.03;;;1.23;;
72771;SDS011;60894;42.544;1.516;2023-06-22T13:25:21;3.00;;;1.20;;
72771;SDS011;60894;42.544;1.516;2023-06-22T13:27:52;2.40;;;1.20;;
72771;SDS011;60894;42.544;1.516;2023-06-22T13:30:19;4.10;;;1.30;;
72771;SDS011;60894;42.544;1.516;2023-06-22T13:32:46;2.85;;;1.08;;
72771;SDS011;60894;42.544;1.516;2023-06-22T13:35:13;3.33;;;1.05;;
72771;SDS011;60894;42.544;1.516;2023-06-22T13:37:40;2.20;;;1.00;;
72771;SDS011;60894;42.544;1.516;2023-06-22T13:40:07;1.58;;;0.73;;
72771;SDS011;60894;42.544;1.516;2023-06-22T13:42:35;1.95;;;1.00;;
72771;SDS011;60894;42.544;1.516;2023-06-22T13:45:03;2.45;;;0.93;;
72771;SDS011;60894;42.544;1.516;2023-06-22T13:47:31;2.65;;;1.23;;
72771;SDS011;60894;42.544;1.516;2023-06-22T13:49:58;4.63;;;1.10;;
72771;SDS011;60894;42.544;1.516;2023-06-22T13:52:25;2.28;;;1.00;;
72771;SDS011;60894;42.544;1.516;2023-06-22T13:54:52;2.45;;;0.82;;
72771;SDS011;60894;42.544;1.516;2023-06-22T13:57:19;2.08;;;0.90;;
72771;SDS011;60894;42.544;1.516;2023-06-22T13:59:46;2.92;;;1.10;;
72771;SDS011;60894;42.544;1.516;2023-06-22T14:02:14;1.60;;;0.90;;
72771;SDS011;60894;42.544;1.516;2023-06-22T14:04:41;2.13;;;1.00;;
72771;SDS011;60894;42.544;1.516;2023-06-22T14:07:08;2.50;;;1.30;;
72771;SDS011;60894;42.544;1.516;2023-06-22T14:09:35;2.53;;;1.20;;
72771;SDS011;60894;42.544;1.516;2023-06-22T14:12:03;3.42;;;1.40;;
72771;SDS011;60894;42.544;1.516;2023-06-22T14:14:31;3.43;;;1.23;;
72771;SDS011;60894;42.544;1.516;2023-06-22T14:16:58;3.17;;;1.23;;
72771;SDS011;60894;42.544;1.516;2023-06-22T14:19:26;3.22;;;1.50;;
72771;SDS011;60894;42.544;1.516;2023-06-22T14:21:53;3.42;;;1.40;;
72771;SDS011;60894;42.544;1.516;2023-06-22T14:24:20;2.63;;;1.38;;
72771;SDS011;60894;42.544;1.516;2023-06-22T14:26:47;2.23;;;1.20;;
72771;SDS011;60894;42.544;1.516;2023-06-22T14:29:14;4.15;;;1.88;;
72771;SDS011;60894;42.544;1.516;2023-06-22T14:31:44;4.05;;;1.60;;
72771;SDS011;60894;42.544;1.516;2023-06-22T14:34:11;2.97;;;1.48;;
72771;SDS011;60894;42.544;1.516;2023-06-22T14:36:40;4.55;;;1.63;;
72771;SDS011;60894;42.544;1.516;2023-06-22T14:39:07;4.20;;;1.70;;
72771;SDS011;60894;42.544;1.516;2023-06-22T14:41:34;4.00;;;1.50;;
72771;SDS011;60894;42.544;1.516;2023-06-22T14:44:00;4.13;;;1.60;;
72771;SDS011;60894;42.544;1.516;2023-06-22T14:46:27;3.78;;;1.45;;
72771;SDS011;60894;42.544;1.516;2023-06-22T14:48:54;7.45;;;1.85;;